Terminal Aerodrome Forecast
Issued by NWS

Home | Current Version | Previous Version | Graphics & Text | Print | Product List | Glossary On
Versions: 1 2 3 4 5 6 7 8 9 10 11 12 13 14 15 16 17
000
FTUS41 KCLE 202330
TAFFDY
TAF
KFDY 202330Z 2100/2124 24010KT P6SM SCT040 BKN100
     FM210100 24010KT P6SM VCSH BKN040 OVC080
      TEMPO 2101/2105 5SM -SHRA BKN025
     FM210800 22004KT P6SM BKN040
     FM211500 34005KT P6SM SCT050=

USA.gov is the U.S. government's official web portal to all federal, state and local government web resources and services.